• Join FlightAware (Why Join?)
  • Login
  • US Flag 
07:38AM EST


 

Airport Tracker/Info


-or-


 

Live Flight TrackerFlight Track Log ✈ SKW6492 ✈ 08-May-2013 ✈ KDEN - KCOD

Flight Track Log - Related Links

Times and Time Zones

All times are in EDT time to prevent confusion due to time zone crossing. See the SKW6492 flight status page for this flight to view local times or setup timezone preferences in your user account.

Time Position Orientation Groundspeed Altitude Reporting Facility
EDT Latitude Longitude Course Direction KTS MPH feet Rate Location/Type
09:42PM 39.8458 -104.7636 346° North 172 198 7,000  Level Denver Center
09:43PM 39.8822 -104.8356 303° West 237 273 8,700 1,740 Climbing Denver Center
09:44PM 39.9539 -104.8539 349° North 270 311 10,600 1,980 Climbing Denver Center
09:45PM 40.2787 -104.8052 347° North  Level FlightAware Approximate
09:45PM 40.0456 -104.8544 360° North 300 345 12,800  Level Denver Center
09:46PM 40.3860 -104.8398 346° North  Level FlightAware Approximate
09:46PM 40.1350 -104.8539 360° North 320 368 14,900  Level Denver Center
09:47PM 40.4932 -104.8755 346° North  Level FlightAware Approximate
09:47PM 40.2278 -104.8522 North 331 381 16,600  Level Denver Center
09:49PM 40.3275 -104.8528 360° North 339 390 18,100 1,380 Climbing Denver Center
09:50PM 40.4253 -104.8508 North 352 405 19,500 1,440 Climbing Denver Center
09:51PM 40.5308 -104.8533 359° North 355 409 21,100 1,440 Climbing Denver Center
09:52PM 40.6339 -104.8511 North 370 426 22,500 1,200 Climbing Denver Center
09:53PM 40.7436 -104.8500 360° North 372 428 23,600 1,080 Climbing Denver Center
09:54PM 40.8497 -104.8844 346° North 396 456 24,800 960 Climbing Denver Center
09:55PM 40.9497 -104.9303 341° North 398 458 25,700 900 Climbing Denver Center
09:56PM 41.0531 -104.9808 340° North 409 471 26,700 960 Climbing Denver Center
09:57PM 41.1733 -105.0400 340° North 412 474 27,700 900 Climbing Denver Center
09:58PM 41.2647 -105.1178 327° Northwest 409 471 28,600 840 Climbing Denver Center
09:59PM 41.3689 -105.2281 322° Northwest 423 487 29,500 840 Climbing Denver Center
10:00PM 41.4583 -105.3231 321° Northwest 428 493 30,400 900 Climbing Denver Center
10:01PM 41.5467 -105.4194 321° Northwest 427 491 31,400 780 Climbing Denver Center
10:02PM 41.6486 -105.5278 322° Northwest 421 484 32,000 240 Climbing Denver Center
10:03PM 41.7406 -105.6275 321° Northwest 435 501 32,000  Level Denver Center
10:04PM 41.8481 -105.7444 321° Northwest 443 510 32,000  Level Denver Center
10:05PM 41.9394 -105.8447 321° Northwest 442 509 32,000  Level Denver Center
10:06PM 42.0444 -105.9606 321° Northwest 438 504 32,000  Level Denver Center
10:07PM 42.1317 -106.0575 321° Northwest 430 495 32,000  Level Denver Center
10:08PM 42.2194 -106.1544 321° Northwest 426 490 32,000  Level Denver Center
10:09PM 42.3203 -106.2681 320° Northwest 424 488 32,000  Level Denver Center
10:10PM 42.4078 -106.3642 321° Northwest 423 487 32,000  Level Denver Center
10:11PM 42.5089 -106.4786 320° Northwest 422 486 32,000  Level Denver Center
10:12PM 42.5811 -106.5614 320° Northwest 425 489 32,000  Level Denver Center
10:13PM 42.6803 -106.6819 318° Northwest 428 493 32,000  Level Denver Center
10:15PM 42.8069 -106.8367 318° Northwest 427 491 32,000  Level Denver Center
10:16PM 42.9056 -106.9581 318° Northwest 428 493 32,000  Level Denver Center
10:17PM 42.9897 -107.0633 318° Northwest 428 493 32,000  Level Denver Center
10:18PM 43.0883 -107.1853 318° Northwest 429 494 32,000  Level Denver Center
10:19PM 43.1739 -107.2958 317° Northwest 426 490 32,000  Level Denver Center
10:20PM 43.2581 -107.4033 317° Northwest 431 496 32,000  Level Denver Center
10:20PM 43.3000 -107.4561 318° Northwest 429 494 32,000  Level Salt Lake Center
10:21PM 43.3978 -107.5839 317° Northwest 434 499 32,000  Level Salt Lake Center
10:22PM 43.4817 -107.6906 317° Northwest 429 494 32,000  Level Salt Lake Center
10:23PM 43.5647 -107.7983 317° Northwest 429 494 32,000  Level Salt Lake Center
10:24PM 43.6625 -107.9242 317° Northwest 430 495 32,000 -1,020 Level Salt Lake Center
10:25PM 43.7461 -108.0328 317° Northwest 430 495 30,000 -2,820 Descending Salt Lake Center
10:26PM 43.8433 -108.1606 317° Northwest 431 496 26,300 -3,420 Descending Salt Lake Center
10:27PM 43.9247 -108.2669 317° Northwest 420 483 23,100 -3,120 Descending Salt Lake Center
10:28PM 44.0028 -108.3708 316° Northwest 411 473 20,000 -3,000 Descending Salt Lake Center
10:29PM 44.0886 -108.4847 316° Northwest 393 452 17,000 -2,760 Descending Salt Lake Center
10:30PM 44.1597 -108.5778 317° Northwest 381 438 14,400 -2,460 Descending Salt Lake Center
10:31PM 44.2244 -108.6650 316° Northwest 363 418 12,000 -2,160 Descending Salt Lake Center
10:33PM 44.2964 -108.7600 317° Northwest 339 390 10,000 -1,260 Descending Salt Lake Center
10:34PM 44.3481 -108.8244 318° Northwest 298 343 9,500 -960 Descending Salt Lake Center
10:35PM 44.3964 -108.8928 315° West 251 289 8,100 -1,380 Descending Salt Lake Center